Achaeos — SYMW — position and weather

sailwx.info

Track history (hours):
 
Tides and Currents Weather Stations Pressure Air Temp Water Temp Dewpoint Dewpoint Depression Visibility Wind Speed Wind Dir Waves Ship Positions

Achaeos

Last reported at 2018-Jun-22 07:30 UTC. Time now 2018-Jun-22 07:42 UTC.
Position N 37°45' E 023°25'.

Length 87 m; draft 3.5 m.

Type: Passenger vessel. MMSI: 239056300.

Date/timePositionNaut miles runAvg speedWind from/ knotsBaromVisibWave heightAir tempDewpointWater temp
2018-Jun-22 07:30N 37°45' E 023°25'713.5
2018-Jun-22 07:00N 37°50' E 023°31'714.3
2018-Jun-22 06:30N 37°55' E 023°36'2 3.9
2018-Jun-22 05:59N 37°57' E 023°39'0 0.0
2018-Jun-22 05:30N 37°57' E 023°39'0 0.0
2018-Jun-21 16:35N 37°57' E 023°39'0 0.0
2018-Jun-21 16:30N 37°57' E 023°39'2 3.8
2018-Jun-21 16:00N 37°56' E 023°37'714.2
2018-Jun-21 15:30N 37°50' E 023°31'713.6
2018-Jun-21 15:00N 37°45' E 023°25'2 4.5
2018-Jun-21 14:30N 37°43' E 023°24'1 1.3
2018-Jun-21 14:00N 37°44' E 023°25'4 7.7
2018-Jun-21 13:31N 37°47' E 023°27'714.0
2018-Jun-21 13:00N 37°52' E 023°33'612.8
2018-Jun-21 12:31N 37°57' E 023°38'0 0.0
2018-Jun-21 12:00N 37°57' E 023°38'3 5.4
2018-Jun-21 11:30N 37°55' E 023°36'713.8
2018-Jun-21 11:00N 37°49' E 023°30'612.6
2018-Jun-21 10:30N 37°45' E 023°25'2 3.7
2018-Jun-21 10:01N 37°47' E 023°26'714.2
2018-Jun-21 09:30N 37°51' E 023°32'713.7
2018-Jun-21 09:00N 37°56' E 023°38'0 0.9
2018-Jun-21 08:30N 37°57' E 023°38'0 0.0
2018-Jun-21 08:00N 37°57' E 023°38'0 0.0
2018-Jun-21 07:30N 37°57' E 023°38'5 9.1
2018-Jun-21 07:00N 37°53' E 023°35'612.8
2018-Jun-21 06:31N 37°49' E 023°29'5 9.7
2018-Jun-21 06:00N 37°45' E 023°25'0 0.6
2018-Jun-21 05:30N 37°45' E 023°25'612.1
2018-Jun-21 05:00N 37°49' E 023°30'713.6
2018-Jun-21 04:30N 37°55' E 023°36'3 6.2
2018-Jun-21 04:00N 37°57' E 023°38'0 0.0
2018-Jun-21 03:30N 37°57' E 023°38'0 0.0
2018-Jun-20 16:10N 37°57' E 023°38'0 0.0
2018-Jun-20 16:01N 37°57' E 023°38'0 0.0
2018-Jun-20 15:30N 37°57' E 023°38'0 0.0
2018-Jun-20 15:00N 37°57' E 023°38'0 0.0
2018-Jun-20 14:30N 37°57' E 023°38'0 0.0
2018-Jun-20 14:00N 37°57' E 023°38'0 0.0
2018-Jun-20 13:30N 37°57' E 023°38'0 0.0
2018-Jun-20 13:00N 37°57' E 023°38'0 0.0
2018-Jun-20 12:30N 37°57' E 023°38'0 0.0
2018-Jun-20 12:00N 37°57' E 023°38'3 5.6
2018-Jun-20 11:30N 37°55' E 023°36'713.8
2018-Jun-20 11:01N 37°49' E 023°30'612.6
2018-Jun-20 10:30N 37°45' E 023°25'0 0.4
2018-Jun-20 10:01N 37°45' E 023°25'611.7
2018-Jun-20 09:30N 37°49' E 023°30'714.3
2018-Jun-20 09:00N 37°55' E 023°36'3 5.5
2018-Jun-20 08:29N 37°57' E 023°38'0 0.0
2018-Jun-20 08:00N 37°57' E 023°38'0 0.0
2018-Jun-20 07:30N 37°57' E 023°38'3 5.9
2018-Jun-20 07:00N 37°55' E 023°36'713.9
2018-Jun-20 06:30N 37°49' E 023°30'612.0
2018-Jun-20 06:01N 37°45' E 023°25'0 0.1
2018-Jun-20 05:30N 37°45' E 023°25'5 9.7
2018-Jun-20 05:00N 37°49' E 023°29'714.0
2018-Jun-20 04:30N 37°54' E 023°35'4 8.1
2018-Jun-20 04:00N 37°57' E 023°38'0 0.0
2018-Jun-20 03:30N 37°57' E 023°38'0 0.0
2018-Jun-19 15:06N 37°57' E 023°38'0 0.1
2018-Jun-19 15:00N 37°57' E 023°38'3 5.6
2018-Jun-19 14:30N 37°55' E 023°36'713.9
2018-Jun-19 14:00N 37°49' E 023°30'612.1
2018-Jun-19 13:30N 37°45' E 023°25'0 0.0
2018-Jun-19 13:00N 37°45' E 023°25'0 0.0
2018-Jun-19 12:30N 37°45' E 023°25'2 4.2
2018-Jun-19 12:00N 37°47' E 023°26'714.4
2018-Jun-19 11:30N 37°52' E 023°33'713.5
2018-Jun-19 11:00N 37°57' E 023°39'0 0.0
2018-Jun-19 10:30N 37°57' E 023°39'0 0.0
2018-Jun-19 10:00N 37°57' E 023°39'4 7.7
2018-Jun-19 09:30N 37°54' E 023°35'713.6
2018-Jun-19 09:01N 37°49' E 023°30'510.2
2018-Jun-19 08:30N 37°45' E 023°25'3 6.8
2018-Jun-19 08:00N 37°43' E 023°22'3 5.3
2018-Jun-19 07:30N 37°44' E 023°25'4 7.1
2018-Jun-19 07:01N 37°47' E 023°27'713.7
2018-Jun-19 06:30N 37°52' E 023°33'612.7
2018-Jun-19 06:00N 37°57' E 023°38'0 0.1
2018-Jun-19 05:29N 37°57' E 023°39'0 0.0
2018-Jun-19 05:00N 37°57' E 023°39'0 0.0
2018-Jun-18 16:45N 37°57' E 023°39'0 0.0
2018-Jun-18 16:31N 37°57' E 023°39'0 0.1
2018-Jun-18 16:01N 37°57' E 023°38'612.3
2018-Jun-18 15:31N 37°52' E 023°33'714.2
2018-Jun-18 15:01N 37°47' E 023°27'3 6.7
2018-Jun-18 14:30N 37°44' E 023°25'1 2.1
2018-Jun-18 14:00N 37°43' E 023°25'4 8.4
2018-Jun-18 13:30N 37°47' E 023°27'713.8
2018-Jun-18 13:00N 37°52' E 023°33'613.0
2018-Jun-18 12:30N 37°57' E 023°38'0 0.3
2018-Jun-18 12:00N 37°57' E 023°39'0 0.0
2018-Jun-18 11:30N 37°57' E 023°39'0 0.0
2018-Jun-18 11:00N 37°57' E 023°39'0 0.0
2018-Jun-18 10:30N 37°57' E 023°39'0 0.0
2018-Jun-18 10:00N 37°57' E 023°39'3 5.2
2018-Jun-18 09:31N 37°55' E 023°36'714.1
2018-Jun-18 09:00N 37°49' E 023°31'612.0
2018-Jun-18 08:29N 37°45' E 023°25'3 6.7
2018-Jun-18 08:00N 37°43' E 023°22'2 4.8
2018-Jun-18 07:31N 37°44' E 023°25'4 8.1
2018-Jun-18 07:00N 37°47' E 023°27'813.9
2018-Jun-18 06:25N 37°53' E 023°35'511.2
2018-Jun-18 06:00N 37°57' E 023°39'0 0.0
2018-Jun-18 05:30N 37°57' E 023°39'0 0.0
2018-Jun-18 05:00N 37°57' E 023°39'0 0.0
2018-Jun-17 19:17N 37°57' E 023°39'0 0.2
2018-Jun-17 19:01N 37°57' E 023°38'612.6
2018-Jun-17 18:30N 37°52' E 023°33'714.1
2018-Jun-17 18:00N 37°47' E 023°27'3 5.0
2018-Jun-17 17:30N 37°45' E 023°25'0 0.3
2018-Jun-17 17:00N 37°45' E 023°25'613.1
2018-Jun-17 16:31N 37°50' E 023°30'714.6
2018-Jun-17 16:01N 37°55' E 023°36'2 4.3
2018-Jun-17 15:30N 37°57' E 023°38'612.8
2018-Jun-17 15:01N 37°52' E 023°33'714.0
2018-Jun-17 14:31N 37°47' E 023°27'3 5.1
2018-Jun-17 14:00N 37°45' E 023°25'3 6.7
2018-Jun-17 13:30N 37°43' E 023°22'0 0.2
2018-Jun-17 13:00N 37°42' E 023°22'3 6.9
2018-Jun-17 12:31N 37°45' E 023°25'611.4
2018-Jun-17 12:00N 37°49' E 023°30'714.1
2018-Jun-17 11:30N 37°55' E 023°36'3 6.2
2018-Jun-17 11:00N 37°57' E 023°39'612.5
2018-Jun-17 10:30N 37°52' E 023°33'714.1
2018-Jun-17 10:00N 37°47' E 023°27'3 5.4
2018-Jun-17 09:30N 37°45' E 023°25'3 5.8
2018-Jun-17 09:00N 37°47' E 023°27'714.0
2018-Jun-17 08:30N 37°52' E 023°34'612.1
2018-Jun-17 08:00N 37°57' E 023°39'0 0.0
2018-Jun-17 07:30N 37°57' E 023°39'0 0.0
2018-Jun-17 07:00N 37°57' E 023°39'0 0.0
2018-Jun-16 17:07N 37°57' E 023°39'0 0.0
2018-Jun-16 17:00N 37°57' E 023°39'0 0.0
2018-Jun-16 16:30N 37°57' E 023°39'1 2.9
2018-Jun-16 16:00N 37°56' E 023°37'611.4
2018-Jun-16 15:30N 37°51' E 023°33'714.4
2018-Jun-16 15:00N 37°47' E 023°26'2 4.8
2018-Jun-16 14:30N 37°44' E 023°25'1 2.6
2018-Jun-16 14:01N 37°43' E 023°25'4 8.7
2018-Jun-16 13:30N 37°47' E 023°27'714.2
2018-Jun-16 13:00N 37°52' E 023°33'612.4
2018-Jun-16 12:30N 37°57' E 023°38'1 1.2
2018-Jun-16 12:00N 37°56' E 023°38'713.8
2018-Jun-16 11:30N 37°51' E 023°32'714.3
2018-Jun-16 11:01N 37°46' E 023°26'3 6.8
2018-Jun-16 10:30N 37°43' E 023°24'2 3.2
2018-Jun-16 10:00N 37°44' E 023°25'3 6.2
2018-Jun-16 09:30N 37°47' E 023°27'714.3
2018-Jun-16 09:00N 37°52' E 023°33'612.1
2018-Jun-16 08:30N 37°57' E 023°39'0 0.0
2018-Jun-16 08:00N 37°57' E 023°39'1 2.1
2018-Jun-16 07:31N 37°56' E 023°37'714.2
2018-Jun-16 07:00N 37°51' E 023°32'714.5
2018-Jun-16 06:31N 37°46' E 023°25'0 0.1
2018-Jun-16 06:01N 37°46' E 023°25'713.9
2018-Jun-16 05:30N 37°50' E 023°31'714.0
2018-Jun-16 05:00N 37°56' E 023°37'1 2.8
2018-Jun-16 04:30N 37°57' E 023°38'0 0.0
2018-Jun-16 04:00N 37°57' E 023°38'0 0.0
2018-Jun-15 18:46N 37°57' E 023°38'0 1.3
2018-Jun-15 18:30N 37°57' E 023°38'5 9.5
2018-Jun-15 18:00N 37°52' E 023°36'714.5
2018-Jun-15 17:30N 37°48' E 023°28'613.0
2018-Jun-15 17:00N 37°43' E 023°23'3 5.3
2018-Jun-15 16:30N 37°45' E 023°25'4 8.3
2018-Jun-15 16:00N 37°48' E 023°29'713.3
2018-Jun-15 15:30N 37°53' E 023°35'510.0
2018-Jun-15 15:00N 37°57' E 023°39'0 0.0
2018-Jun-15 14:30N 37°57' E 023°39'0 0.0
2018-Jun-15 14:00N 37°57' E 023°39'611.6
2018-Jun-15 13:30N 37°52' E 023°34'714.8
2018-Jun-15 13:00N 37°47' E 023°27'3 5.5
2018-Jun-15 12:30N 37°45' E 023°25'3 5.8
2018-Jun-15 12:00N 37°47' E 023°27'713.9
2018-Jun-15 11:30N 37°52' E 023°33'612.2
2018-Jun-15 11:00N 37°57' E 023°38'0 0.1
2018-Jun-15 10:30N 37°57' E 023°39'0 0.0
2018-Jun-15 10:00N 37°57' E 023°39'611.9
2018-Jun-15 09:31N 37°52' E 023°34'714.3
2018-Jun-15 09:01N 37°47' E 023°27'3 6.1
2018-Jun-15 08:31N 37°45' E 023°25'3 6.3
2018-Jun-15 08:01N 37°43' E 023°22'4 7.4
2018-Jun-15 07:30N 37°46' E 023°25'713.8
2018-Jun-15 07:01N 37°50' E 023°31'713.3
2018-Jun-15 06:30N 37°55' E 023°36'2 3.9
2018-Jun-15 06:00N 37°57' E 023°39'0 0.0
2018-Jun-15 05:30N 37°57' E 023°39'0 0.0
2018-Jun-15 05:00N 37°57' E 023°39'0 0.0
2018-Jun-14 16:40N 37°57' E 023°39'0 0.0
2018-Jun-14 16:30N 37°57' E 023°39'1 1.5
2018-Jun-14 16:01N 37°56' E 023°38'713.7
2018-Jun-14 15:31N 37°51' E 023°32'714.4
2018-Jun-14 15:01N 37°46' E 023°25'3 6.6
2018-Jun-14 14:31N 37°43' E 023°24'1 2.7
2018-Jun-14 14:01N 37°44' E 023°25'4 7.0
2018-Jun-14 13:30N 37°47' E 023°27'713.7
2018-Jun-14 13:00N 37°52' E 023°33'612.5
2018-Jun-14 12:30N 37°57' E 023°39'0 0.0
2018-Jun-14 12:00N 37°57' E 023°39'0 0.0
2018-Jun-14 11:30N 37°57' E 023°39'0 0.0
2018-Jun-14 10:59N 37°57' E 023°39'0 0.0
2018-Jun-14 10:30N 37°57' E 023°39'0 0.0
2018-Jun-14 10:00N 37°57' E 023°39'3 5.9
2018-Jun-14 09:30N 37°55' E 023°36'713.8
2018-Jun-14 09:00N 37°49' E 023°30'612.2
2018-Jun-14 08:31N 37°45' E 023°25'3 6.5
2018-Jun-14 08:01N 37°43' E 023°22'3 5.9
2018-Jun-14 07:31N 37°44' E 023°25'4 7.3
2018-Jun-14 07:00N 37°48' E 023°27'713.5
2018-Jun-14 06:30N 37°52' E 023°34'6 0.3
2018-Jun-13 12:01N 37°57' E 023°38'0 0.0
2018-Jun-13 12:00N 37°57' E 023°38'3 5.6
2018-Jun-13 11:31N 37°55' E 023°36'714.3
2018-Jun-13 11:01N 37°49' E 023°30'611.8
2018-Jun-13 10:30N 37°45' E 023°25'0 0.0
2018-Jun-13 10:00N 37°45' E 023°25'611.8
2018-Jun-13 09:31N 37°49' E 023°30'714.1
2018-Jun-13 09:00N 37°55' E 023°36'3 5.8
2018-Jun-13 08:31N 37°57' E 023°39'0 0.0
2018-Jun-13 08:01N 37°57' E 023°39'0 0.0
2018-Jun-13 07:30N 37°57' E 023°39'3 6.2
2018-Jun-13 07:00N 37°55' E 023°36'714.2
2018-Jun-13 06:30N 37°49' E 023°30'511.1
2018-Jun-13 06:00N 37°45' E 023°25'0 0.6
2018-Jun-13 05:30N 37°45' E 023°25'612.8
2018-Jun-13 05:00N 37°50' E 023°30'714.0
2018-Jun-13 04:30N 37°55' E 023°36'3 5.1
2018-Jun-13 04:00N 37°57' E 023°38'0 0.0
2018-Jun-13 03:31N 37°57' E 023°38'0 0.0
2018-Jun-12 16:25N 37°57' E 023°38'0 0.0
2018-Jun-12 16:00N 37°57' E 023°38'612.1
2018-Jun-12 15:30N 37°52' E 023°33'714.6
2018-Jun-12 15:00N 37°47' E 023°27'4 8.1
2018-Jun-12 14:31N 37°43' E 023°25'0 0.3
2018-Jun-12 14:00N 37°44' E 023°25'4 8.8
2018-Jun-12 13:30N 37°47' E 023°27'713.5
2018-Jun-12 13:01N 37°52' E 023°33'612.1
2018-Jun-12 12:30N 37°57' E 023°39'0 0.0
2018-Jun-12 12:01N 37°57' E 023°39'2 4.9
2018-Jun-12 11:30N 37°55' E 023°36'714.2
2018-Jun-12 11:00N 37°49' E 023°31'612.4
2018-Jun-12 10:30N 37°45' E 023°25'1 2.0
2018-Jun-12 10:00N 37°46' E 023°25'713.4
2018-Jun-12 09:30N 37°50' E 023°31'713.8
2018-Jun-12 09:00N 37°56' E 023°37'2 3.9
2018-Jun-12 08:30N 37°57' E 023°39'0 0.0
2018-Jun-12 08:00N 37°57' E 023°39'0 0.0
2018-Jun-12 07:30N 37°57' E 023°39'  
Track history (hours):
 
Tides and Currents Weather Stations Pressure Air Temp Water Temp Dewpoint Dewpoint Depression Visibility Wind Speed Wind Dir Waves Ship Positions

Achaeos

Last reported at 2018-Jun-22 07:30 UTC. Time now 2018-Jun-22 07:42 UTC.
Position N 37°45' E 023°25'.

Length 87 m; draft 3.5 m.

Type: Passenger vessel. MMSI: 239056300.

Date/timePositionNaut miles runAvg speedWind from/ knotsBaromVisibWave heightAir tempDewpointWater temp
2018-Jun-22 07:30N 37°45' E 023°25'713.5
2018-Jun-22 07:00N 37°50' E 023°31'714.3
2018-Jun-22 06:30N 37°55' E 023°36'2 3.9
2018-Jun-22 05:59N 37°57' E 023°39'0 0.0
2018-Jun-22 05:30N 37°57' E 023°39'0 0.0
2018-Jun-21 16:35N 37°57' E 023°39'0 0.0
2018-Jun-21 16:30N 37°57' E 023°39'2 3.8
2018-Jun-21 16:00N 37°56' E 023°37'714.2
2018-Jun-21 15:30N 37°50' E 023°31'713.6
2018-Jun-21 15:00N 37°45' E 023°25'2 4.5
2018-Jun-21 14:30N 37°43' E 023°24'1 1.3
2018-Jun-21 14:00N 37°44' E 023°25'4 7.7
2018-Jun-21 13:31N 37°47' E 023°27'714.0
2018-Jun-21 13:00N 37°52' E 023°33'612.8
2018-Jun-21 12:31N 37°57' E 023°38'0 0.0
2018-Jun-21 12:00N 37°57' E 023°38'3 5.4
2018-Jun-21 11:30N 37°55' E 023°36'713.8
2018-Jun-21 11:00N 37°49' E 023°30'612.6
2018-Jun-21 10:30N 37°45' E 023°25'2 3.7
2018-Jun-21 10:01N 37°47' E 023°26'714.2
2018-Jun-21 09:30N 37°51' E 023°32'713.7
2018-Jun-21 09:00N 37°56' E 023°38'0 0.9
2018-Jun-21 08:30N 37°57' E 023°38'0 0.0
2018-Jun-21 08:00N 37°57' E 023°38'0 0.0
2018-Jun-21 07:30N 37°57' E 023°38'5 9.1
2018-Jun-21 07:00N 37°53' E 023°35'612.8
2018-Jun-21 06:31N 37°49' E 023°29'5 9.7
2018-Jun-21 06:00N 37°45' E 023°25'0 0.6
2018-Jun-21 05:30N 37°45' E 023°25'612.1
2018-Jun-21 05:00N 37°49' E 023°30'713.6
2018-Jun-21 04:30N 37°55' E 023°36'3 6.2
2018-Jun-21 04:00N 37°57' E 023°38'0 0.0
2018-Jun-21 03:30N 37°57' E 023°38'0 0.0
2018-Jun-20 16:10N 37°57' E 023°38'0 0.0
2018-Jun-20 16:01N 37°57' E 023°38'0 0.0
2018-Jun-20 15:30N 37°57' E 023°38'0 0.0
2018-Jun-20 15:00N 37°57' E 023°38'0 0.0
2018-Jun-20 14:30N 37°57' E 023°38'0 0.0
2018-Jun-20 14:00N 37°57' E 023°38'0 0.0
2018-Jun-20 13:30N 37°57' E 023°38'0 0.0
2018-Jun-20 13:00N 37°57' E 023°38'0 0.0
2018-Jun-20 12:30N 37°57' E 023°38'0 0.0
2018-Jun-20 12:00N 37°57' E 023°38'3 5.6
2018-Jun-20 11:30N 37°55' E 023°36'713.8
2018-Jun-20 11:01N 37°49' E 023°30'612.6
2018-Jun-20 10:30N 37°45' E 023°25'0 0.4
2018-Jun-20 10:01N 37°45' E 023°25'611.7
2018-Jun-20 09:30N 37°49' E 023°30'714.3
2018-Jun-20 09:00N 37°55' E 023°36'3 5.5
2018-Jun-20 08:29N 37°57' E 023°38'0 0.0
2018-Jun-20 08:00N 37°57' E 023°38'0 0.0
2018-Jun-20 07:30N 37°57' E 023°38'3 5.9
2018-Jun-20 07:00N 37°55' E 023°36'713.9
2018-Jun-20 06:30N 37°49' E 023°30'612.0
2018-Jun-20 06:01N 37°45' E 023°25'0 0.1
2018-Jun-20 05:30N 37°45' E 023°25'5 9.7
2018-Jun-20 05:00N 37°49' E 023°29'714.0
2018-Jun-20 04:30N 37°54' E 023°35'4 8.1
2018-Jun-20 04:00N 37°57' E 023°38'0 0.0
2018-Jun-20 03:30N 37°57' E 023°38'0 0.0
2018-Jun-19 15:06N 37°57' E 023°38'0 0.1
2018-Jun-19 15:00N 37°57' E 023°38'3 5.6
2018-Jun-19 14:30N 37°55' E 023°36'713.9
2018-Jun-19 14:00N 37°49' E 023°30'612.1
2018-Jun-19 13:30N 37°45' E 023°25'0 0.0
2018-Jun-19 13:00N 37°45' E 023°25'0 0.0
2018-Jun-19 12:30N 37°45' E 023°25'2 4.2
2018-Jun-19 12:00N 37°47' E 023°26'714.4
2018-Jun-19 11:30N 37°52' E 023°33'713.5
2018-Jun-19 11:00N 37°57' E 023°39'0 0.0
2018-Jun-19 10:30N 37°57' E 023°39'0 0.0
2018-Jun-19 10:00N 37°57' E 023°39'4 7.7
2018-Jun-19 09:30N 37°54' E 023°35'713.6
2018-Jun-19 09:01N 37°49' E 023°30'510.2
2018-Jun-19 08:30N 37°45' E 023°25'3 6.8
2018-Jun-19 08:00N 37°43' E 023°22'3 5.3
2018-Jun-19 07:30N 37°44' E 023°25'4 7.1
2018-Jun-19 07:01N 37°47' E 023°27'713.7
2018-Jun-19 06:30N 37°52' E 023°33'612.7
2018-Jun-19 06:00N 37°57' E 023°38'0 0.1
2018-Jun-19 05:29N 37°57' E 023°39'0 0.0
2018-Jun-19 05:00N 37°57' E 023°39'0 0.0
2018-Jun-18 16:45N 37°57' E 023°39'0 0.0
2018-Jun-18 16:31N 37°57' E 023°39'0 0.1
2018-Jun-18 16:01N 37°57' E 023°38'612.3
2018-Jun-18 15:31N 37°52' E 023°33'714.2
2018-Jun-18 15:01N 37°47' E 023°27'3 6.7
2018-Jun-18 14:30N 37°44' E 023°25'1 2.1
2018-Jun-18 14:00N 37°43' E 023°25'4 8.4
2018-Jun-18 13:30N 37°47' E 023°27'713.8
2018-Jun-18 13:00N 37°52' E 023°33'613.0
2018-Jun-18 12:30N 37°57' E 023°38'0 0.3
2018-Jun-18 12:00N 37°57' E 023°39'0 0.0
2018-Jun-18 11:30N 37°57' E 023°39'0 0.0
2018-Jun-18 11:00N 37°57' E 023°39'0 0.0
2018-Jun-18 10:30N 37°57' E 023°39'0 0.0
2018-Jun-18 10:00N 37°57' E 023°39'3 5.2
2018-Jun-18 09:31N 37°55' E 023°36'714.1
2018-Jun-18 09:00N 37°49' E 023°31'612.0
2018-Jun-18 08:29N 37°45' E 023°25'3 6.7
2018-Jun-18 08:00N 37°43' E 023°22'2 4.8
2018-Jun-18 07:31N 37°44' E 023°25'4 8.1
2018-Jun-18 07:00N 37°47' E 023°27'813.9
2018-Jun-18 06:25N 37°53' E 023°35'511.2
2018-Jun-18 06:00N 37°57' E 023°39'0 0.0
2018-Jun-18 05:30N 37°57' E 023°39'0 0.0
2018-Jun-18 05:00N 37°57' E 023°39'0 0.0
2018-Jun-17 19:17N 37°57' E 023°39'0 0.2
2018-Jun-17 19:01N 37°57' E 023°38'612.6
2018-Jun-17 18:30N 37°52' E 023°33'714.1
2018-Jun-17 18:00N 37°47' E 023°27'3 5.0
2018-Jun-17 17:30N 37°45' E 023°25'0 0.3
2018-Jun-17 17:00N 37°45' E 023°25'613.1
2018-Jun-17 16:31N 37°50' E 023°30'714.6
2018-Jun-17 16:01N 37°55' E 023°36'2 4.3
2018-Jun-17 15:30N 37°57' E 023°38'612.8
2018-Jun-17 15:01N 37°52' E 023°33'714.0
2018-Jun-17 14:31N 37°47' E 023°27'3 5.1
2018-Jun-17 14:00N 37°45' E 023°25'3 6.7
2018-Jun-17 13:30N 37°43' E 023°22'0 0.2
2018-Jun-17 13:00N 37°42' E 023°22'3 6.9
2018-Jun-17 12:31N 37°45' E 023°25'611.4
2018-Jun-17 12:00N 37°49' E 023°30'714.1
2018-Jun-17 11:30N 37°55' E 023°36'3 6.2
2018-Jun-17 11:00N 37°57' E 023°39'612.5
2018-Jun-17 10:30N 37°52' E 023°33'714.1
2018-Jun-17 10:00N 37°47' E 023°27'3 5.4
2018-Jun-17 09:30N 37°45' E 023°25'3 5.8
2018-Jun-17 09:00N 37°47' E 023°27'714.0
2018-Jun-17 08:30N 37°52' E 023°34'612.1
2018-Jun-17 08:00N 37°57' E 023°39'0 0.0
2018-Jun-17 07:30N 37°57' E 023°39'0 0.0
2018-Jun-17 07:00N 37°57' E 023°39'0 0.0
2018-Jun-16 17:07N 37°57' E 023°39'0 0.0
2018-Jun-16 17:00N 37°57' E 023°39'0 0.0
2018-Jun-16 16:30N 37°57' E 023°39'1 2.9
2018-Jun-16 16:00N 37°56' E 023°37'611.4
2018-Jun-16 15:30N 37°51' E 023°33'714.4
2018-Jun-16 15:00N 37°47' E 023°26'2 4.8
2018-Jun-16 14:30N 37°44' E 023°25'1 2.6
2018-Jun-16 14:01N 37°43' E 023°25'4 8.7
2018-Jun-16 13:30N 37°47' E 023°27'714.2
2018-Jun-16 13:00N 37°52' E 023°33'612.4
2018-Jun-16 12:30N 37°57' E 023°38'1 1.2
2018-Jun-16 12:00N 37°56' E 023°38'713.8
2018-Jun-16 11:30N 37°51' E 023°32'714.3
2018-Jun-16 11:01N 37°46' E 023°26'3 6.8
2018-Jun-16 10:30N 37°43' E 023°24'2 3.2
2018-Jun-16 10:00N 37°44' E 023°25'3 6.2
2018-Jun-16 09:30N 37°47' E 023°27'714.3
2018-Jun-16 09:00N 37°52' E 023°33'612.1
2018-Jun-16 08:30N 37°57' E 023°39'0 0.0
2018-Jun-16 08:00N 37°57' E 023°39'1 2.1
2018-Jun-16 07:31N 37°56' E 023°37'714.2
2018-Jun-16 07:00N 37°51' E 023°32'714.5
2018-Jun-16 06:31N 37°46' E 023°25'0 0.1
2018-Jun-16 06:01N 37°46' E 023°25'713.9
2018-Jun-16 05:30N 37°50' E 023°31'714.0
2018-Jun-16 05:00N 37°56' E 023°37'1 2.8
2018-Jun-16 04:30N 37°57' E 023°38'0 0.0
2018-Jun-16 04:00N 37°57' E 023°38'0 0.0
2018-Jun-15 18:46N 37°57' E 023°38'0 1.3
2018-Jun-15 18:30N 37°57' E 023°38'5 9.5
2018-Jun-15 18:00N 37°52' E 023°36'714.5
2018-Jun-15 17:30N 37°48' E 023°28'613.0
2018-Jun-15 17:00N 37°43' E 023°23'3 5.3
2018-Jun-15 16:30N 37°45' E 023°25'4 8.3
2018-Jun-15 16:00N 37°48' E 023°29'713.3
2018-Jun-15 15:30N 37°53' E 023°35'510.0
2018-Jun-15 15:00N 37°57' E 023°39'0 0.0
2018-Jun-15 14:30N 37°57' E 023°39'0 0.0
2018-Jun-15 14:00N 37°57' E 023°39'611.6
2018-Jun-15 13:30N 37°52' E 023°34'714.8
2018-Jun-15 13:00N 37°47' E 023°27'3 5.5
2018-Jun-15 12:30N 37°45' E 023°25'3 5.8
2018-Jun-15 12:00N 37°47' E 023°27'713.9
2018-Jun-15 11:30N 37°52' E 023°33'612.2
2018-Jun-15 11:00N 37°57' E 023°38'0 0.1
2018-Jun-15 10:30N 37°57' E 023°39'0 0.0
2018-Jun-15 10:00N 37°57' E 023°39'611.9
2018-Jun-15 09:31N 37°52' E 023°34'714.3
2018-Jun-15 09:01N 37°47' E 023°27'3 6.1
2018-Jun-15 08:31N 37°45' E 023°25'3 6.3
2018-Jun-15 08:01N 37°43' E 023°22'4 7.4
2018-Jun-15 07:30N 37°46' E 023°25'713.8
2018-Jun-15 07:01N 37°50' E 023°31'713.3
2018-Jun-15 06:30N 37°55' E 023°36'2 3.9
2018-Jun-15 06:00N 37°57' E 023°39'0 0.0
2018-Jun-15 05:30N 37°57' E 023°39'0 0.0
2018-Jun-15 05:00N 37°57' E 023°39'0 0.0
2018-Jun-14 16:40N 37°57' E 023°39'0 0.0
2018-Jun-14 16:30N 37°57' E 023°39'1 1.5
2018-Jun-14 16:01N 37°56' E 023°38'713.7
2018-Jun-14 15:31N 37°51' E 023°32'714.4
2018-Jun-14 15:01N 37°46' E 023°25'3 6.6
2018-Jun-14 14:31N 37°43' E 023°24'1 2.7
2018-Jun-14 14:01N 37°44' E 023°25'4 7.0
2018-Jun-14 13:30N 37°47' E 023°27'713.7
2018-Jun-14 13:00N 37°52' E 023°33'612.5
2018-Jun-14 12:30N 37°57' E 023°39'0 0.0
2018-Jun-14 12:00N 37°57' E 023°39'0 0.0
2018-Jun-14 11:30N 37°57' E 023°39'0 0.0
2018-Jun-14 10:59N 37°57' E 023°39'0 0.0
2018-Jun-14 10:30N 37°57' E 023°39'0 0.0
2018-Jun-14 10:00N 37°57' E 023°39'3 5.9
2018-Jun-14 09:30N 37°55' E 023°36'713.8
2018-Jun-14 09:00N 37°49' E 023°30'612.2
2018-Jun-14 08:31N 37°45' E 023°25'3 6.5
2018-Jun-14 08:01N 37°43' E 023°22'3 5.9
2018-Jun-14 07:31N 37°44' E 023°25'4 7.3
2018-Jun-14 07:00N 37°48' E 023°27'713.5
2018-Jun-14 06:30N 37°52' E 023°34'6 0.3
2018-Jun-13 12:01N 37°57' E 023°38'0 0.0
2018-Jun-13 12:00N 37°57' E 023°38'3 5.6
2018-Jun-13 11:31N 37°55' E 023°36'714.3
2018-Jun-13 11:01N 37°49' E 023°30'611.8
2018-Jun-13 10:30N 37°45' E 023°25'0 0.0
2018-Jun-13 10:00N 37°45' E 023°25'611.8
2018-Jun-13 09:31N 37°49' E 023°30'714.1
2018-Jun-13 09:00N 37°55' E 023°36'3 5.8
2018-Jun-13 08:31N 37°57' E 023°39'0 0.0
2018-Jun-13 08:01N 37°57' E 023°39'0 0.0
2018-Jun-13 07:30N 37°57' E 023°39'3 6.2
2018-Jun-13 07:00N 37°55' E 023°36'714.2
2018-Jun-13 06:30N 37°49' E 023°30'511.1
2018-Jun-13 06:00N 37°45' E 023°25'0 0.6
2018-Jun-13 05:30N 37°45' E 023°25'612.8
2018-Jun-13 05:00N 37°50' E 023°30'714.0
2018-Jun-13 04:30N 37°55' E 023°36'3 5.1
2018-Jun-13 04:00N 37°57' E 023°38'0 0.0
2018-Jun-13 03:31N 37°57' E 023°38'0 0.0
2018-Jun-12 16:25N 37°57' E 023°38'0 0.0
2018-Jun-12 16:00N 37°57' E 023°38'612.1
2018-Jun-12 15:30N 37°52' E 023°33'714.6
2018-Jun-12 15:00N 37°47' E 023°27'4 8.1
2018-Jun-12 14:31N 37°43' E 023°25'0 0.3
2018-Jun-12 14:00N 37°44' E 023°25'4 8.8
2018-Jun-12 13:30N 37°47' E 023°27'713.5
2018-Jun-12 13:01N 37°52' E 023°33'612.1
2018-Jun-12 12:30N 37°57' E 023°39'0 0.0
2018-Jun-12 12:01N 37°57' E 023°39'2 4.9
2018-Jun-12 11:30N 37°55' E 023°36'714.2
2018-Jun-12 11:00N 37°49' E 023°31'612.4
2018-Jun-12 10:30N 37°45' E 023°25'1 2.0
2018-Jun-12 10:00N 37°46' E 023°25'713.4
2018-Jun-12 09:30N 37°50' E 023°31'713.8
2018-Jun-12 09:00N 37°56' E 023°37'2 3.9
2018-Jun-12 08:30N 37°57' E 023°39'0 0.0
2018-Jun-12 08:00N 37°57' E 023°39'0 0.0
2018-Jun-12 07:30N 37°57' E 023°39'  

Dump ship's entire track history